Time;durP1;ratioP1;P1;durP2;ratioP2;P2;SDS_P1;SDS_P2;PMS_P1;PMS_P2;Temp;Humidity;BMP_temperature;BMP_pressure;BME280_temperature;BME280_humidity;BME280_pressure;Samples;Min_cycle;Max_cycle;Signal;HPM_P1;HPM_P2
2023/10/06 00:03:06;;;;;;;9.15;4.00;;;;;;;11.35;100.00;102339.94;5018776;28;20041;-86
2023/10/06 00:05:34;;;;;;;10.38;4.05;;;;;;;11.36;100.00;102347.06;5015854;28;20045;-87
2023/10/06 00:08:10;;;;;;;10.27;4.17;;;;;;;11.34;100.00;102349.13;5015982;28;20120;-87
2023/10/06 00:10:37;;;;;;;10.32;4.03;;;;;;;11.31;100.00;102350.34;5000445;28;20045;-87
2023/10/06 00:13:05;;;;;;;8.07;4.10;;;;;;;11.28;100.00;102344.41;5032371;28;20068;-87
2023/10/06 00:15:38;;;;;;;10.82;4.00;;;;;;;11.26;100.00;102347.31;4999806;28;20390;-87
2023/10/06 00:18:08;;;;;;;9.00;4.40;;;;;;;11.21;100.00;102336.16;5016786;28;20049;-87
2023/10/06 00:20:39;;;;;;;11.97;4.33;;;;;;;11.21;100.00;102344.31;5015885;28;20034;-87
2023/10/06 00:23:14;;;;;;;8.05;4.00;;;;;;;11.22;100.00;102346.84;5015879;28;20492;-87
2023/10/06 00:25:43;;;;;;;10.20;4.35;;;;;;;11.17;100.00;102351.97;5015734;28;20037;-86
2023/10/06 00:28:32;;;;;;;10.52;4.38;;;;;;;11.21;100.00;102347.03;5015845;28;20132;-87
2023/10/06 00:30:57;;;;;;;11.13;5.18;;;;;;;11.17;100.00;102345.69;5031853;28;20041;-87
2023/10/06 00:33:32;;;;;;;9.40;3.97;;;;;;;11.18;100.00;102350.13;5015765;28;20094;-86
2023/10/06 00:36:11;;;;;;;9.18;4.10;;;;;;;11.14;100.00;102337.91;5015810;28;20080;-87
2023/10/06 00:38:38;;;;;;;8.30;4.57;;;;;;;11.13;100.00;102347.09;5015965;28;20041;-87
2023/10/06 00:41:07;;;;;;;9.65;4.03;;;;;;;11.14;100.00;102338.75;5015885;28;20046;-87
2023/10/06 00:43:36;;;;;;;12.98;4.50;;;;;;;11.14;100.00;102337.91;5015539;28;20095;-87
2023/10/06 00:46:06;;;;;;;13.57;4.33;;;;;;;11.11;100.00;102347.28;5035846;28;20045;-86
2023/10/06 00:48:32;;;;;;;13.57;4.10;;;;;;;11.09;100.00;102338.47;5035997;28;20084;-87
2023/10/06 00:51:01;;;;;;;11.98;4.50;;;;;;;11.06;100.00;102336.13;5019782;28;20037;-87
2023/10/06 00:53:31;;;;;;;10.38;4.32;;;;;;;11.06;100.00;102338.84;5037191;28;20060;-87
2023/10/06 00:55:59;;;;;;;10.17;4.13;;;;;;;11.04;100.00;102344.44;5019507;28;20049;-86
2023/10/06 00:58:33;;;;;;;8.35;4.05;;;;;;;11.00;100.00;102334.97;5019535;28;20037;-87
2023/10/06 01:00:59;;;;;;;11.35;4.32;;;;;;;11.01;100.00;102339.38;5036007;28;20124;-87
2023/10/06 01:03:25;;;;;;;11.27;4.20;;;;;;;10.98;100.00;102328.03;5019715;28;20140;-87
2023/10/06 01:05:56;;;;;;;9.57;4.07;;;;;;;10.99;100.00;102325.13;5019015;28;20826;-86
2023/10/06 01:08:22;;;;;;;10.85;4.20;;;;;;;10.97;100.00;102320.91;5019501;28;20052;-87
2023/10/06 01:10:51;;;;;;;10.23;4.32;;;;;;;10.99;100.00;102330.56;5019367;28;20046;-87
2023/10/06 01:13:18;;;;;;;10.05;3.92;;;;;;;10.95;100.00;102318.38;5019118;28;20048;-86
2023/10/06 01:15:56;;;;;;;11.63;4.22;;;;;;;10.93;100.00;102309.56;5037055;28;20033;-86
2023/10/06 01:18:35;;;;;;;11.83;4.53;;;;;;;10.93;100.00;102308.72;5018774;28;20156;-86
2023/10/06 01:21:13;;;;;;;8.30;3.83;;;;;;;10.91;100.00;102302.63;5019255;28;20493;-87
2023/10/06 01:23:39;;;;;;;12.45;4.20;;;;;;;10.90;100.00;102306.38;5035318;28;20058;-87
2023/10/06 01:26:05;;;;;;;10.67;4.27;;;;;;;10.90;100.00;102296.34;5036868;28;20088;-87
2023/10/06 01:28:34;;;;;;;10.20;3.95;;;;;;;10.93;100.00;102308.72;5018720;28;20076;-87
2023/10/06 01:31:02;;;;;;;11.03;4.37;;;;;;;10.91;100.00;102299.91;5018998;28;20410;-87
2023/10/06 01:33:28;;;;;;;12.85;4.20;;;;;;;10.88;100.00;102307.41;5036559;28;20034;-87
2023/10/06 01:35:55;;;;;;;9.17;4.00;;;;;;;10.90;100.00;102312.66;5018561;28;20046;-87
2023/10/06 01:38:23;;;;;;;8.55;4.38;;;;;;;10.86;100.00;102303.16;5018681;28;20111;-86
2023/10/06 01:40:53;;;;;;;6.60;3.88;;;;;;;10.85;100.00;102310.47;5002505;28;20103;-87
2023/10/06 01:43:22;;;;;;;11.55;4.43;;;;;;;10.87;100.00;102307.59;5018430;28;20064;-87
2023/10/06 01:45:51;;;;;;;11.15;4.55;;;;;;;10.86;100.00;102301.28;5018467;28;20053;-87
2023/10/06 01:50:48;;;;;;;16.67;4.65;;;;;;;10.84;100.00;102297.91;5036438;28;20045;-87
2023/10/06 01:53:18;;;;;;;7.55;3.97;;;;;;;10.81;100.00;102283.88;5002924;28;20038;-87
2023/10/06 01:55:51;;;;;;;10.30;4.53;;;;;;;10.83;100.00;102292.69;5017521;28;20483;-87
2023/10/06 01:58:16;;;;;;;10.93;4.43;;;;;;;10.81;100.00;102292.84;5035069;28;20042;-87
2023/10/06 02:00:48;;;;;;;11.30;4.03;;;;;;;10.80;100.00;102279.47;5018973;28;20056;-87
2023/10/06 02:03:16;;;;;;;13.60;4.32;;;;;;;10.80;100.00;102276.75;5018241;28;20134;-87
2023/10/06 02:05:43;;;;;;;8.27;4.40;;;;;;;10.80;100.00;102280.31;5017979;28;20037;-86
2023/10/06 02:08:21;;;;;;;11.00;3.90;;;;;;;10.78;100.00;102282.38;5018282;28;20048;-86
2023/10/06 02:10:47;;;;;;;9.90;4.80;;;;;;;10.79;100.00;102280.50;5018379;28;20131;-86
2023/10/06 02:13:19;;;;;;;9.00;4.10;;;;;;;10.83;100.00;102300.81;5018228;28;20033;-87
2023/10/06 02:15:45;;;;;;;10.93;4.20;;;;;;;10.78;100.00;102287.78;5003007;28;20053;-86
2023/10/06 02:18:12;;;;;;;14.37;4.57;;;;;;;10.80;100.00;102293.03;5018257;28;20482;-86
2023/10/06 02:20:41;;;;;;;9.80;4.20;;;;;;;10.78;100.00;102293.22;5018737;28;20041;-87
2023/10/06 02:23:07;;;;;;;11.32;4.38;;;;;;;10.79;100.00;102286.78;5017787;28;20045;-87
2023/10/06 02:25:35;;;;;;;10.83;4.23;;;;;;;10.80;100.00;102290.31;5017636;28;20037;-87
2023/10/06 02:28:05;;;;;;;9.90;4.20;;;;;;;10.76;100.00;102295.25;5018175;28;20048;-86
2023/10/06 02:30:44;;;;;;;11.50;4.50;;;;;;;10.78;100.00;102285.09;5034038;28;20039;-86
2023/10/06 02:33:11;;;;;;;8.48;4.40;;;;;;;10.77;100.00;102288.81;5017928;28;20072;-86
2023/10/06 02:35:44;;;;;;;10.55;4.18;;;;;;;10.78;100.00;102295.09;5017860;28;20060;-86
2023/10/06 02:38:10;;;;;;;9.70;4.00;;;;;;;10.77;100.00;102296.13;5002639;28;20076;-86
2023/10/06 02:40:45;;;;;;;13.23;4.35;;;;;;;10.76;100.00;102291.72;5018004;28;20033;-86
2023/10/06 02:43:16;;;;;;;10.27;4.53;;;;;;;10.71;100.00;102284.94;5017148;28;20470;-86
2023/10/06 02:45:42;;;;;;;11.88;4.40;;;;;;;10.70;100.00;102275.13;5034999;28;20049;-86
2023/10/06 02:48:16;;;;;;;12.68;4.57;;;;;;;10.70;100.00;102269.72;5017149;28;20041;-87
2023/10/06 02:50:44;;;;;;;7.82;4.20;;;;;;;10.65;100.00;102272.09;5017279;28;20037;-87
2023/10/06 02:53:13;;;;;;;16.97;4.87;;;;;;;10.63;100.00;102279.59;5017494;28;20049;-86
2023/10/06 02:55:43;;;;;;;10.55;4.40;;;;;;;10.62;100.00;102287.91;5034422;28;20128;-87
2023/10/06 02:58:09;;;;;;;14.05;4.45;;;;;;;10.62;100.00;102280.63;5017078;28;20041;-86
2023/10/06 03:00:36;;;;;;;12.45;4.55;;;;;;;10.61;100.00;102278.09;5017290;28;20108;-87
2023/10/06 03:03:12;;;;;;;10.25;4.40;;;;;;;10.61;100.00;102278.09;5017807;28;20041;-86
2023/10/06 03:05:39;;;;;;;13.83;4.33;;;;;;;10.58;100.00;102267.59;5002327;28;20467;-87
2023/10/06 03:08:09;;;;;;;9.57;4.55;;;;;;;10.58;100.00;102273.00;5016613;28;20045;-86
2023/10/06 03:10:44;;;;;;;9.95;4.55;;;;;;;10.55;100.00;102267.94;5016806;28;20569;-86
2023/10/06 03:13:13;;;;;;;11.02;4.28;;;;;;;10.55;100.00;102257.09;5016687;28;20037;-87
2023/10/06 03:15:48;;;;;;;11.07;4.25;;;;;;;10.56;100.00;102256.09;5016398;28;20029;-86
2023/10/06 03:18:17;;;;;;;11.87;4.17;;;;;;;10.58;100.00;102256.72;5033227;28;20081;-86
2023/10/06 03:20:47;;;;;;;11.80;4.43;;;;;;;10.57;100.00;102260.47;5016953;28;20033;-86
2023/10/06 03:26:03;;;;;;;9.88;3.72;;;;;;;10.57;100.00;102250.47;5034937;28;20044;-86
2023/10/06 03:28:37;;;;;;;11.45;3.60;;;;;;;10.58;100.00;102256.72;5016564;28;20544;-87
2023/10/06 03:33:48;;;;;;;10.88;4.10;;;;;;;10.57;100.00;102266.75;5019428;28;20103;-87
2023/10/06 03:36:16;;;;;;;8.65;3.75;;;;;;;10.56;100.00;102267.78;5016727;28;20029;-86
2023/10/06 03:38:44;;;;;;;12.95;4.13;;;;;;;10.58;100.00;102268.41;5000442;28;20052;-87
2023/10/06 03:41:19;;;;;;;11.30;4.70;;;;;;;10.53;100.00;102268.97;5017113;28;20465;-87
2023/10/06 03:46:18;;;;;;;10.43;3.85;;;;;;;10.52;100.00;102269.97;5032673;28;20104;-86
2023/10/06 03:48:48;;;;;;;11.68;4.30;;;;;;;10.51;100.00;102268.31;5016196;28;20072;-86
2023/10/06 03:51:16;;;;;;;8.45;4.22;;;;;;;10.49;100.00;102262.19;5033037;28;20041;-86
2023/10/06 03:53:41;;;;;;;10.40;4.53;;;;;;;10.52;100.00;102258.28;5016202;28;20041;-86
2023/10/06 03:56:08;;;;;;;9.53;3.67;;;;;;;10.53;100.00;102260.00;5016442;28;20033;-86
2023/10/06 03:58:34;;;;;;;8.70;4.03;;;;;;;10.51;100.00;102253.88;5015804;28;20069;-86
2023/10/06 04:01:07;;;;;;;10.97;4.27;;;;;;;10.52;100.00;102242.84;5016277;28;20064;-86
2023/10/06 04:03:33;;;;;;;12.85;4.18;;;;;;;10.51;100.00;102243.91;5016270;28;20494;-87
2023/10/06 04:05:59;;;;;;;10.90;4.18;;;;;;;10.49;100.00;102235.06;5015840;28;20140;-86
2023/10/06 04:08:24;;;;;;;10.32;4.00;;;;;;;10.53;100.00;102239.13;5016181;28;20508;-86
2023/10/06 04:11:00;;;;;;;10.63;3.87;;;;;;;10.55;100.00;102241.66;5015618;28;20033;-86
2023/10/06 04:13:26;;;;;;;8.20;3.70;;;;;;;10.55;100.00;102233.50;5032609;28;20366;-86
2023/10/06 04:15:53;;;;;;;7.63;3.63;;;;;;;10.57;100.00;102225.19;5015959;28;20127;-86
2023/10/06 04:18:23;;;;;;;7.18;3.55;;;;;;;10.51;100.00;102224.91;5015347;28;20053;-87
2023/10/06 04:20:53;;;;;;;10.45;3.95;;;;;;;10.48;100.00;102236.13;5015769;28;20037;-86
2023/10/06 04:23:18;;;;;;;7.03;3.42;;;;;;;10.46;100.00;102240.03;5008528;28;20030;-87
2023/10/06 04:25:45;;;;;;;10.60;3.50;;;;;;;10.39;100.00;102242.59;5016215;28;20381;-87
2023/10/06 04:28:14;;;;;;;8.48;3.60;;;;;;;10.35;100.00;102244.00;5015845;28;20037;-86
2023/10/06 04:30:43;;;;;;;7.93;3.53;;;;;;;10.34;100.00;102262.13;5016346;28;20038;-87
2023/10/06 04:33:10;;;;;;;9.02;3.10;;;;;;;10.38;100.00;102259.06;5015507;28;20046;-87
2023/10/06 04:35:40;;;;;;;10.30;3.65;;;;;;;10.34;100.00;102256.72;5015948;28;20033;-87
2023/10/06 04:38:12;;;;;;;9.88;3.45;;;;;;;10.33;100.00;102260.47;5015875;28;20037;-86
2023/10/06 04:40:38;;;;;;;6.68;3.60;;;;;;;10.34;100.00;102253.16;5016027;28;20045;-87
2023/10/06 04:43:04;;;;;;;9.85;3.40;;;;;;;10.34;100.00;102247.75;5015519;28;20044;-87
2023/10/06 04:45:33;;;;;;;9.23;3.67;;;;;;;10.29;100.00;102231.09;5031966;28;20046;-86
2023/10/06 04:48:00;;;;;;;6.63;3.50;;;;;;;10.23;100.00;102229.97;5015498;28;20037;-86
2023/10/06 04:50:27;;;;;;;9.23;3.53;;;;;;;10.22;100.00;102238.31;5015525;28;20037;-86
2023/10/06 04:52:54;;;;;;;7.90;3.40;;;;;;;10.24;100.00;102234.38;5015565;28;20030;-86
2023/10/06 04:55:20;;;;;;;11.97;4.10;;;;;;;10.25;100.00;102235.22;5033267;28;20044;-87
2023/10/06 04:57:47;;;;;;;10.45;3.53;;;;;;;10.24;100.00;102230.81;5015143;28;20053;-86
2023/10/06 05:00:19;;;;;;;7.43;3.42;;;;;;;10.25;100.00;102227.09;5031897;28;20045;-86
2023/10/06 05:02:47;;;;;;;8.50;3.50;;;;;;;10.22;100.00;102214.72;5033123;28;20045;-86
2023/10/06 05:05:35;;;;;;;13.17;3.50;;;;;;;10.24;100.00;102212.66;5032693;28;20026;-86
2023/10/06 05:08:02;;;;;;;7.60;3.53;;;;;;;10.26;100.00;102224.19;4999773;28;20132;-86
2023/10/06 05:10:30;;;;;;;8.43;3.30;;;;;;;10.29;100.00;102234.69;5015507;28;20069;-86
2023/10/06 05:12:55;;;;;;;8.00;3.80;;;;;;;10.32;100.00;102225.34;5033145;28;20033;-87
2023/10/06 05:15:23;;;;;;;6.77;3.57;;;;;;;10.35;100.00;102220.44;4999165;28;20038;-87
2023/10/06 05:17:58;;;;;;;7.68;3.40;;;;;;;10.37;100.00;102222.13;5016149;28;20052;-85
2023/10/06 05:20:31;;;;;;;11.55;3.83;;;;;;;10.42;100.00;102223.25;5033143;28;20041;-90
2023/10/06 05:23:09;;;;;;;8.50;3.08;;;;;;;10.42;100.00;102219.69;5015126;28;20037;-91
2023/10/06 05:25:37;;;;;;;9.27;3.20;;;;;;;10.43;100.00;102224.94;5033420;28;20029;-91
2023/10/06 05:28:07;;;;;;;11.02;3.53;;;;;;;10.46;100.00;102221.88;5032001;28;20033;-90
2023/10/06 05:30:33;;;;;;;7.30;3.28;;;;;;;10.45;100.00;102225.63;5017100;28;20056;-86
2023/10/06 05:33:03;;;;;;;9.85;3.20;;;;;;;10.47;100.00;102231.72;5018948;28;20480;-86
2023/10/06 05:35:30;;;;;;;7.23;3.07;;;;;;;10.49;100.00;102226.09;5019614;28;20048;-85
2023/10/06 05:37:57;;;;;;;10.70;2.92;;;;;;;10.44;100.00;102225.81;5018609;28;20478;-86
2023/10/06 05:40:22;;;;;;;7.80;3.33;;;;;;;10.45;100.00;102222.06;5002228;28;20485;-86
2023/10/06 05:42:54;;;;;;;7.47;2.90;;;;;;;10.44;100.00;102232.06;5018636;28;20048;-86
2023/10/06 05:45:19;;;;;;;10.30;2.85;;;;;;;10.45;100.00;102219.34;5018328;28;20052;-84
2023/10/06 05:47:50;;;;;;;6.80;3.33;;;;;;;10.43;100.00;102219.53;5035055;28;20041;-85
2023/10/06 05:50:27;;;;;;;7.50;3.00;;;;;;;10.45;100.00;102222.91;5036125;28;20033;-85
2023/10/06 05:53:01;;;;;;;8.55;3.22;;;;;;;10.46;100.00;102223.75;5018340;28;20037;-86
2023/10/06 05:55:37;;;;;;;8.77;3.70;;;;;;;10.46;100.00;102230.00;5036379;28;20049;-86
2023/10/06 05:58:09;;;;;;;6.95;3.13;;;;;;;10.51;100.00;102230.31;5018413;28;20070;-87
2023/10/06 06:00:44;;;;;;;10.20;2.83;;;;;;;10.50;100.00;102239.47;5018406;28;20465;-87
2023/10/06 06:03:10;;;;;;;9.27;3.33;;;;;;;10.50;100.00;102231.34;5018503;28;20045;-85
2023/10/06 06:05:39;;;;;;;8.68;3.25;;;;;;;10.50;100.00;102228.63;5034466;28;20374;-86
2023/10/06 06:08:08;;;;;;;7.35;3.10;;;;;;;10.52;100.00;102225.72;5018199;28;20068;-85
2023/10/06 06:10:35;;;;;;;9.80;3.40;;;;;;;10.51;100.00;102226.75;5017971;28;20045;-86
2023/10/06 06:13:00;;;;;;;9.80;3.73;;;;;;;10.55;100.00;102233.50;5017367;28;20091;-87
2023/10/06 06:15:32;;;;;;;9.88;3.33;;;;;;;10.58;100.00;102233.13;5001591;28;20046;-86
2023/10/06 06:17:58;;;;;;;6.73;3.37;;;;;;;10.62;100.00;102233.63;5034701;28;20037;-87
2023/10/06 06:20:25;;;;;;;12.98;3.58;;;;;;;10.66;100.00;102235.81;5017583;28;20549;-83
2023/10/06 06:22:58;;;;;;;9.20;3.75;;;;;;;10.75;100.00;102225.72;5034662;28;20453;-83
2023/10/06 06:25:24;;;;;;;8.73;2.90;;;;;;;10.81;100.00;102240.44;5017682;28;20060;-83
2023/10/06 06:27:50;;;;;;;10.23;3.40;;;;;;;10.85;100.00;102234.47;5017408;28;20042;-83
2023/10/06 06:30:18;;;;;;;7.57;2.83;;;;;;;10.86;100.00;102238.84;5017403;28;20041;-83
2023/10/06 06:32:48;;;;;;;8.60;3.30;;;;;;;10.90;100.00;102247.47;5018150;28;20045;-83
2023/10/06 06:35:14;;;;;;;12.00;2.80;;;;;;;10.93;100.00;102240.84;5035258;28;20033;-83
2023/10/06 06:37:42;;;;;;;10.77;3.53;;;;;;;10.94;100.00;102245.22;5018254;28;20045;-83
2023/10/06 06:40:10;;;;;;;7.22;3.50;;;;;;;10.97;100.00;102240.28;5017460;28;20041;-83
2023/10/06 06:42:39;;;;;;;10.05;3.45;;;;;;;11.04;100.00;102249.41;5016701;28;20478;-83
2023/10/06 06:45:06;;;;;;;9.05;3.20;;;;;;;11.06;100.00;102243.78;5000767;28;20037;-83
2023/10/06 06:47:32;;;;;;;8.43;3.33;;;;;;;11.10;100.00;102245.09;5001373;28;20429;-83
2023/10/06 06:50:00;;;;;;;9.07;3.20;;;;;;;11.13;100.00;102249.28;5017383;28;20045;-83
2023/10/06 06:52:25;;;;;;;13.60;3.53;;;;;;;11.14;100.00;102235.53;5034045;28;20040;-86
2023/10/06 06:54:51;;;;;;;8.75;3.15;;;;;;;11.20;100.00;102251.09;5017108;28;20049;-85
2023/10/06 06:57:16;;;;;;;10.73;3.27;;;;;;;11.20;100.00;102245.66;5017044;28;20048;-84
2023/10/06 06:59:44;;;;;;;8.32;3.08;;;;;;;11.24;100.00;102246.97;5000302;28;20524;-84
2023/10/06 07:02:10;;;;;;;8.30;3.20;;;;;;;11.27;100.00;102245.75;5017295;28;20049;-84
2023/10/06 07:04:35;;;;;;;14.35;3.33;;;;;;;11.26;100.00;102241.34;5016839;28;20057;-84
2023/10/06 07:07:01;;;;;;;11.00;3.43;;;;;;;11.30;100.00;102241.84;5016726;28;20121;-84
2023/10/06 07:09:27;;;;;;;9.07;3.20;;;;;;;11.31;100.00;102236.22;5034534;28;20053;-85
2023/10/06 07:11:54;;;;;;;10.20;2.80;;;;;;;11.33;100.00;102238.75;5000657;28;20033;-84
2023/10/06 07:14:20;;;;;;;6.45;3.22;;;;;;;11.39;100.00;102241.53;5033457;28;20047;-84
2023/10/06 07:16:47;;;;;;;10.07;2.97;;;;;;;11.38;100.00;102231.72;5034540;28;20037;-84
2023/10/06 07:19:17;;;;;;;8.88;3.47;;;;;;;11.45;100.00;102239.97;5032959;28;20072;-84
2023/10/06 07:21:43;;;;;;;10.05;3.22;;;;;;;11.46;100.00;102233.50;5016672;28;20045;-84
2023/10/06 07:24:13;;;;;;;11.77;3.60;;;;;;;11.52;100.00;102238.19;5033807;28;20124;-84
2023/10/06 07:26:42;;;;;;;9.73;3.40;;;;;;;11.57;100.00;102241.19;5033739;28;20047;-84
2023/10/06 07:29:08;;;;;;;9.48;3.47;;;;;;;11.65;100.00;102252.97;5016696;28;20137;-84
2023/10/06 07:31:34;;;;;;;11.25;3.45;;;;;;;11.66;100.00;102232.94;5000220;28;20128;-88
2023/10/06 07:34:02;;;;;;;14.80;3.80;;;;;;;11.77;100.00;102248.78;5016264;28;20044;-87
2023/10/06 07:36:28;;;;;;;8.63;3.40;;;;;;;11.87;100.00;102257.47;5016613;28;20033;-87
2023/10/06 07:38:53;;;;;;;12.67;3.00;;;;;;;11.92;100.00;102246.03;5000101;28;20042;-87
2023/10/06 07:41:23;;;;;;;7.60;3.40;;;;;;;11.98;100.00;102241.75;5016503;28;20037;-87
2023/10/06 07:43:49;;;;;;;9.40;3.55;;;;;;;12.06;100.00;102256.06;5033755;28;20041;-87
2023/10/06 07:46:18;;;;;;;7.60;2.85;;;;;;;12.13;100.00;102266.19;4999772;28;20059;-87
2023/10/06 07:48:47;;;;;;;9.30;3.10;;;;;;;12.24;100.00;102262.97;5032699;28;20552;-87
2023/10/06 07:51:19;;;;;;;12.52;3.38;;;;;;;12.27;100.00;102271.59;5016614;28;20476;-87
2023/10/06 07:53:45;;;;;;;11.57;2.97;;;;;;;12.37;100.00;102267.69;5033209;28;20092;-87
2023/10/06 07:56:11;;;;;;;13.73;3.13;;;;;;;12.45;100.00;102275.75;5016341;28;20036;-87
2023/10/06 07:58:41;;;;;;;9.93;3.40;;;;;;;12.56;100.00;102283.44;5033845;28;20038;-87
2023/10/06 08:01:11;;;;;;;8.90;3.03;;;;;;;12.62;100.00;102279.94;5015417;28;20133;-87
2023/10/06 08:03:39;;;;;;;9.70;3.13;;;;;;;12.74;100.00;102276.66;5032829;28;20033;-87
2023/10/06 08:06:08;;;;;;;7.72;3.15;;;;;;;12.84;100.00;102284.53;5033472;28;20041;-87
2023/10/06 08:08:35;;;;;;;9.38;3.20;;;;;;;12.93;100.00;102273.31;5033431;28;20095;-87
2023/10/06 08:11:08;;;;;;;13.90;3.60;;;;;;;13.05;100.00;102268.16;5033308;28;20048;-87
2023/10/06 08:13:35;;;;;;;10.70;3.20;;;;;;;13.22;100.00;102263.25;5016218;28;20038;-87
2023/10/06 08:16:01;;;;;;;8.00;3.37;;;;;;;13.31;100.00;102253.88;5015793;28;20552;-87
2023/10/06 08:18:29;;;;;;;11.35;3.63;;;;;;;13.46;100.00;102263.84;5032122;28;20174;-87
2023/10/06 08:21:02;;;;;;;10.25;3.42;;;;;;;13.64;100.00;102266.06;5016114;28;20044;-87
2023/10/06 08:23:31;;;;;;;9.70;2.92;;;;;;;13.83;100.00;102265.34;5033193;28;20056;-88
2023/10/06 08:25:58;;;;;;;8.83;3.00;;;;;;;13.97;100.00;102268.94;5015745;28;20466;-87
2023/10/06 08:28:26;;;;;;;12.82;3.83;;;;;;;14.16;100.00;102263.78;5015350;28;20210;-86
2023/10/06 08:30:52;;;;;;;7.05;3.22;;;;;;;14.35;100.00;102260.25;5033393;28;20505;-87
2023/10/06 08:33:18;;;;;;;11.65;3.08;;;;;;;14.56;100.00;102272.91;5016020;28;20466;-88
2023/10/06 08:35:44;;;;;;;9.13;2.97;;;;;;;14.65;100.00;102268.13;5015716;28;20048;-85
2023/10/06 08:38:09;;;;;;;11.32;3.55;;;;;;;14.68;100.00;102273.16;5016271;28;20049;-86
2023/10/06 08:40:41;;;;;;;8.20;3.23;;;;;;;14.75;100.00;102265.00;5016264;28;20041;-86
2023/10/06 08:43:07;;;;;;;10.80;3.35;;;;;;;14.84;100.00;102266.47;5015924;28;20379;-86
2023/10/06 08:45:40;;;;;;;14.52;3.70;;;;;;;14.95;100.00;102266.88;5015362;28;20037;-86
2023/10/06 08:48:09;;;;;;;9.90;3.35;;;;;;;15.04;100.00;102261.00;4999144;28;20053;-86
2023/10/06 08:50:36;;;;;;;8.60;2.90;;;;;;;15.22;100.00;102276.75;5015554;28;20045;-86
2023/10/06 08:53:09;;;;;;;15.57;3.55;;;;;;;15.36;100.00;102255.69;5032162;28;20042;-86
2023/10/06 08:55:40;;;;;;;9.98;3.55;;;;;;;15.48;100.00;102266.00;5015528;28;20533;-86
2023/10/06 08:58:07;;;;;;;11.93;3.70;;;;;;;15.59;100.00;102266.19;5015507;28;20068;-86
2023/10/06 09:00:36;;;;;;;9.43;3.70;;;;;;;15.69;100.00;102259.41;5032624;28;20045;-86
2023/10/06 09:03:08;;;;;;;11.83;3.20;;;;;;;15.77;100.00;102261.91;5015166;28;20048;-86
2023/10/06 09:05:36;;;;;;;11.02;3.45;;;;;;;15.76;100.00;102265.69;5016763;28;20045;-86
2023/10/06 09:08:15;;;;;;;12.05;3.60;;;;;;;15.70;100.00;102283.81;5019203;28;20048;-86
2023/10/06 09:10:43;;;;;;;10.63;3.70;;;;;;;15.73;100.00;102279.81;5019380;28;20132;-86
2023/10/06 09:13:16;;;;;;;11.25;3.20;;;;;;;15.87;100.00;102283.38;5036449;28;20030;-86
2023/10/06 09:15:43;;;;;;;11.87;3.50;;;;;;;15.93;100.00;102288.00;5019349;28;20497;-86
2023/10/06 09:18:27;;;;;;;13.32;3.72;;;;;;;16.01;100.00;102281.44;5018850;28;20454;-86
2023/10/06 09:20:54;;;;;;;9.63;3.42;;;;;;;16.01;99.99;102287.75;5019723;28;20188;-86
2023/10/06 09:23:31;;;;;;;12.07;3.38;;;;;;;16.02;100.00;102274.88;5019053;28;20030;-86
2023/10/06 09:25:58;;;;;;;8.57;3.47;;;;;;;16.20;100.00;102271.47;5018703;28;20026;-86
2023/10/06 09:28:25;;;;;;;6.80;3.13;;;;;;;16.40;99.44;102254.91;5002492;28;20393;-86
2023/10/06 09:31:01;;;;;;;9.02;2.92;;;;;;;16.50;98.38;102260.72;5018926;28;20391;-86
2023/10/06 09:33:37;;;;;;;9.48;3.35;;;;;;;16.61;97.46;102262.78;5019007;28;20393;-86
2023/10/06 09:36:11;;;;;;;8.05;3.30;;;;;;;16.69;97.56;102249.88;5018927;28;20053;-86
2023/10/06 09:38:38;;;;;;;13.07;3.55;;;;;;;16.86;97.16;102258.38;5018702;28;20041;-86
2023/10/06 09:41:09;;;;;;;9.73;3.07;;;;;;;16.92;96.63;102261.09;5036792;28;20084;-86
2023/10/06 09:43:39;;;;;;;8.80;3.13;;;;;;;16.99;96.14;102253.66;5018396;28;20033;-86
2023/10/06 09:46:11;;;;;;;14.00;3.60;;;;;;;17.09;95.43;102252.31;5018631;28;20038;-86
2023/10/06 09:48:39;;;;;;;9.23;3.30;;;;;;;17.23;94.97;102256.59;5018661;28;20137;-86
2023/10/06 09:51:07;;;;;;;7.18;3.30;;;;;;;17.31;94.43;102244.50;5036337;28;20049;-85
2023/10/06 09:53:43;;;;;;;9.87;3.17;;;;;;;17.42;94.06;102242.91;5018528;28;20045;-86
2023/10/06 09:56:11;;;;;;;8.27;3.30;;;;;;;17.47;93.84;102237.59;5018606;28;20041;-86
2023/10/06 09:58:41;;;;;;;7.90;2.55;;;;;;;17.58;93.65;102235.97;5019456;28;20370;-87
2023/10/06 10:01:10;;;;;;;8.57;2.88;;;;;;;17.59;92.89;102245.91;5035284;28;20033;-87
2023/10/06 10:03:37;;;;;;;11.07;3.35;;;;;;;17.56;92.84;102246.34;5017951;28;20038;-87
2023/10/06 10:06:04;;;;;;;10.53;2.73;;;;;;;17.54;92.57;102247.41;5018628;28;20140;-88
2023/10/06 10:08:36;;;;;;;7.40;2.85;;;;;;;17.52;92.33;102249.56;5036270;28;20045;-87
2023/10/06 10:11:15;;;;;;;10.48;2.88;;;;;;;17.49;92.64;102241.78;5035762;28;20053;-87
2023/10/06 10:13:57;;;;;;;8.20;2.65;;;;;;;17.45;93.15;102240.56;5018371;28;20060;-87
2023/10/06 10:16:52;;;;;;;13.45;2.90;;;;;;;17.39;93.57;102248.84;5018214;28;20048;-86
2023/10/06 10:19:22;;;;;;;9.70;2.73;;;;;;;17.30;92.93;102257.38;5017547;28;20061;-87
2023/10/06 10:21:48;;;;;;;10.70;2.90;;;;;;;17.29;93.46;102235.66;5017950;28;20033;-87
2023/10/06 10:24:19;;;;;;;7.03;2.60;;;;;;;17.45;92.77;102231.47;5017633;28;20038;-87
2023/10/06 10:26:50;;;;;;;9.07;3.05;;;;;;;17.72;nan;102232.00;5035257;28;20045;-86
2023/10/06 10:29:18;;;;;;;7.73;3.03;;;;;;;17.90;90.56;102228.44;5034906;28;20116;-87
2023/10/06 10:31:51;;;;;;;14.35;3.17;;;;;;;17.98;90.78;102241.88;5018165;28;20482;-87
2023/10/06 10:34:25;;;;;;;6.75;3.13;;;;;;;18.02;90.71;102228.50;5017905;28;20092;-87
2023/10/06 10:36:53;;;;;;;7.30;3.20;;;;;;;18.04;89.43;102234.56;5002249;28;20046;-87
2023/10/06 10:39:19;;;;;;;9.07;3.10;;;;;;;18.12;90.78;102226.03;5017284;28;20191;-87
2023/10/06 10:41:45;;;;;;;8.37;3.67;;;;;;;18.31;89.22;102220.50;5017351;28;20493;-87
2023/10/06 10:44:14;;;;;;;9.82;3.33;;;;;;;18.67;89.64;102221.41;5017322;28;20501;-87
2023/10/06 10:46:52;;;;;;;7.00;2.95;;;;;;;18.91;86.89;102212.16;5016828;28;20047;-87
2023/10/06 10:49:20;;;;;;;10.73;3.45;;;;;;;19.08;86.32;102204.00;5017260;28;20128;-87
2023/10/06 10:51:53;;;;;;;8.57;3.40;;;;;;;19.19;84.91;102210.59;5018074;28;20040;-87
2023/10/06 10:54:21;;;;;;;13.27;3.07;;;;;;;19.23;83.77;102205.44;5017569;28;20040;-86
2023/10/06 10:56:51;;;;;;;10.30;3.22;;;;;;;19.31;83.01;102201.47;5016909;28;20040;-86
2023/10/06 10:59:20;;;;;;;10.18;3.13;;;;;;;19.58;82.20;102205.38;5017739;28;20041;-86
2023/10/06 11:01:51;;;;;;;11.30;3.13;;;;;;;20.65;79.63;102226.97;5016908;28;20082;-87
2023/10/06 11:07:05;;;;;;;13.77;3.47;;;;;;;22.14;72.68;102206.94;5035247;28;20129;-86
2023/10/06 11:09:36;;;;;;;8.88;2.88;;;;;;;22.37;68.82;102216.88;5033741;28;20415;-86
2023/10/06 11:12:17;;;;;;;7.22;3.20;;;;;;;22.00;70.78;102216.75;5017491;28;20041;-86
2023/10/06 11:14:43;;;;;;;16.77;3.90;;;;;;;21.47;70.95;102224.66;5017107;28;20477;-87
2023/10/06 11:17:11;;;;;;;15.18;3.40;;;;;;;20.84;73.51;102220.13;5034095;28;20362;-86
2023/10/06 11:19:38;;;;;;;9.17;3.70;;;;;;;20.24;75.47;102229.00;5016511;28;20053;-87
2023/10/06 11:22:20;;;;;;;13.48;3.60;;;;;;;19.79;77.76;102212.16;5016755;28;20037;-87
2023/10/06 11:24:48;;;;;;;9.23;3.50;;;;;;;19.45;78.67;102211.97;5016642;28;20466;-86
2023/10/06 11:27:22;;;;;;;7.57;3.30;;;;;;;19.45;79.85;102203.72;5016581;28;20045;-87
2023/10/06 11:29:52;;;;;;;10.35;3.20;;;;;;;19.69;79.74;102208.34;5016436;28;20045;-88
2023/10/06 11:32:18;;;;;;;7.10;2.80;;;;;;;19.93;78.94;102215.47;5017334;28;20486;-87
2023/10/06 11:34:44;;;;;;;8.93;3.50;;;;;;;20.05;77.62;102209.06;5016402;28;20489;-87
2023/10/06 11:37:11;;;;;;;8.23;3.40;;;;;;;20.46;77.02;102207.06;4999889;28;20045;-87
2023/10/06 11:39:37;;;;;;;10.15;3.20;;;;;;;21.45;74.02;102193.69;5034087;28;20047;-87